Terminal Aerodrome Forecast
Issued by NWS

Home | Current Version | Previous Version | Text Only | Print | Product List | Glossary On
Versions: 1 2 3 4 5 6 7 8 9 10 11 12 13
566
FTUS46 KSTO 272127 AAA
TAFRBL
TAF AMD
KRBL 272127Z 2721/2818 34010KT P6SM BKN200
     FM280300 35008KT P6SM SCT250
     FM281600 33014G28KT P6SM SKC=

USA.gov is the U.S. government's official web portal to all federal, state and local government web resources and services.